sensor_id;sensor_type;location;lat;lon;timestamp;temperature;humidity
39019;DHT22;24786;51.984;5.872;2023-04-25T00:00:28;7.00;99.90
39019;DHT22;24786;51.984;5.872;2023-04-25T00:02:54;7.00;99.90
39019;DHT22;24786;51.984;5.872;2023-04-25T00:05:22;6.90;99.90
39019;DHT22;24786;51.984;5.872;2023-04-25T00:07:48;6.90;99.90
39019;DHT22;24786;51.984;5.872;2023-04-25T00:10:15;6.80;99.90
39019;DHT22;24786;51.984;5.872;2023-04-25T00:12:40;6.80;99.90
39019;DHT22;24786;51.984;5.872;2023-04-25T00:15:07;6.80;99.90
39019;DHT22;24786;51.984;5.872;2023-04-25T00:17:32;6.80;99.90
39019;DHT22;24786;51.984;5.872;2023-04-25T00:19:57;6.70;99.90
39019;DHT22;24786;51.984;5.872;2023-04-25T00:22:23;6.70;99.90
39019;DHT22;24786;51.984;5.872;2023-04-25T00:24:49;6.70;99.90
39019;DHT22;24786;51.984;5.872;2023-04-25T00:27:14;6.70;99.90
39019;DHT22;24786;51.984;5.872;2023-04-25T00:29:40;6.70;99.90
39019;DHT22;24786;51.984;5.872;2023-04-25T00:32:05;6.60;99.90
39019;DHT22;24786;51.984;5.872;2023-04-25T00:34:31;6.60;99.90
39019;DHT22;24786;51.984;5.872;2023-04-25T00:36:56;6.50;99.90
39019;DHT22;24786;51.984;5.872;2023-04-25T00:39:22;6.50;99.90
39019;DHT22;24786;51.984;5.872;2023-04-25T00:41:47;6.50;99.90
39019;DHT22;24786;51.984;5.872;2023-04-25T00:44:13;6.50;99.90
39019;DHT22;24786;51.984;5.872;2023-04-25T00:46:40;6.50;99.90
39019;DHT22;24786;51.984;5.872;2023-04-25T00:49:06;6.50;99.90
39019;DHT22;24786;51.984;5.872;2023-04-25T00:51:31;6.50;99.90
39019;DHT22;24786;51.984;5.872;2023-04-25T00:53:58;6.50;99.90
39019;DHT22;24786;51.984;5.872;2023-04-25T00:56:23;6.50;99.90
39019;DHT22;24786;51.984;5.872;2023-04-25T00:58:50;6.50;99.90
39019;DHT22;24786;51.984;5.872;2023-04-25T01:01:18;6.40;99.90
39019;DHT22;24786;51.984;5.872;2023-04-25T01:03:43;6.40;99.90
39019;DHT22;24786;51.984;5.872;2023-04-25T01:06:12;6.40;99.90
39019;DHT22;24786;51.984;5.872;2023-04-25T01:08:38;6.30;99.90
39019;DHT22;24786;51.984;5.872;2023-04-25T01:11:03;6.30;99.90
39019;DHT22;24786;51.984;5.872;2023-04-25T01:13:29;6.30;99.90
39019;DHT22;24786;51.984;5.872;2023-04-25T01:15:57;6.30;99.90
39019;DHT22;24786;51.984;5.872;2023-04-25T01:18:23;6.30;99.90
39019;DHT22;24786;51.984;5.872;2023-04-25T01:20:49;6.20;99.90
39019;DHT22;24786;51.984;5.872;2023-04-25T01:23:15;6.20;99.90
39019;DHT22;24786;51.984;5.872;2023-04-25T01:25:41;6.20;99.90
39019;DHT22;24786;51.984;5.872;2023-04-25T01:28:07;6.20;99.90
39019;DHT22;24786;51.984;5.872;2023-04-25T01:30:32;6.20;99.90
39019;DHT22;24786;51.984;5.872;2023-04-25T01:32:58;6.20;99.90
39019;DHT22;24786;51.984;5.872;2023-04-25T01:35:24;6.20;99.90
39019;DHT22;24786;51.984;5.872;2023-04-25T01:37:50;6.20;99.90
39019;DHT22;24786;51.984;5.872;2023-04-25T01:40:16;6.30;99.90
39019;DHT22;24786;51.984;5.872;2023-04-25T01:42:44;6.20;99.90
39019;DHT22;24786;51.984;5.872;2023-04-25T01:45:10;6.20;99.90
39019;DHT22;24786;51.984;5.872;2023-04-25T01:47:36;6.20;99.90
39019;DHT22;24786;51.984;5.872;2023-04-25T01:50:02;6.20;99.90
39019;DHT22;24786;51.984;5.872;2023-04-25T01:52:28;6.20;99.90
39019;DHT22;24786;51.984;5.872;2023-04-25T01:54:53;6.20;99.90
39019;DHT22;24786;51.984;5.872;2023-04-25T01:57:19;6.30;99.90
39019;DHT22;24786;51.984;5.872;2023-04-25T01:59:45;6.30;99.90
39019;DHT22;24786;51.984;5.872;2023-04-25T02:02:11;6.30;99.90
39019;DHT22;24786;51.984;5.872;2023-04-25T02:04:36;6.30;99.90
39019;DHT22;24786;51.984;5.872;2023-04-25T02:07:01;6.30;99.90
39019;DHT22;24786;51.984;5.872;2023-04-25T02:09:28;6.30;99.90
39019;DHT22;24786;51.984;5.872;2023-04-25T02:11:53;6.30;99.90
39019;DHT22;24786;51.984;5.872;2023-04-25T02:14:19;6.30;99.90
39019;DHT22;24786;51.984;5.872;2023-04-25T02:16:44;6.30;99.90
39019;DHT22;24786;51.984;5.872;2023-04-25T02:19:11;6.20;99.90
39019;DHT22;24786;51.984;5.872;2023-04-25T02:21:37;6.30;99.90
39019;DHT22;24786;51.984;5.872;2023-04-25T02:24:02;6.20;99.90
39019;DHT22;24786;51.984;5.872;2023-04-25T02:26:28;6.20;99.90
39019;DHT22;24786;51.984;5.872;2023-04-25T02:28:53;6.20;99.90
39019;DHT22;24786;51.984;5.872;2023-04-25T02:31:20;6.20;99.90
39019;DHT22;24786;51.984;5.872;2023-04-25T02:33:45;6.20;99.90
39019;DHT22;24786;51.984;5.872;2023-04-25T02:36:11;6.10;99.90
39019;DHT22;24786;51.984;5.872;2023-04-25T02:38:36;6.10;99.90
39019;DHT22;24786;51.984;5.872;2023-04-25T02:41:02;6.10;99.90
39019;DHT22;24786;51.984;5.872;2023-04-25T02:43:27;6.10;99.90
39019;DHT22;24786;51.984;5.872;2023-04-25T02:45:53;6.00;99.90
39019;DHT22;24786;51.984;5.872;2023-04-25T02:48:19;6.00;99.90
39019;DHT22;24786;51.984;5.872;2023-04-25T02:50:45;6.00;99.90
39019;DHT22;24786;51.984;5.872;2023-04-25T02:53:10;6.00;99.90
39019;DHT22;24786;51.984;5.872;2023-04-25T02:55:36;5.90;99.90
39019;DHT22;24786;51.984;5.872;2023-04-25T02:58:01;5.90;99.90
39019;DHT22;24786;51.984;5.872;2023-04-25T03:00:27;5.90;99.90
39019;DHT22;24786;51.984;5.872;2023-04-25T03:02:53;5.90;99.90
39019;DHT22;24786;51.984;5.872;2023-04-25T03:05:18;5.80;99.90
39019;DHT22;24786;51.984;5.872;2023-04-25T03:07:44;5.80;99.90
39019;DHT22;24786;51.984;5.872;2023-04-25T03:10:11;5.80;99.90
39019;DHT22;24786;51.984;5.872;2023-04-25T03:12:36;5.70;99.90
39019;DHT22;24786;51.984;5.872;2023-04-25T03:15:02;5.70;99.90
39019;DHT22;24786;51.984;5.872;2023-04-25T03:17:28;5.70;99.90
39019;DHT22;24786;51.984;5.872;2023-04-25T03:19:53;5.60;99.90
39019;DHT22;24786;51.984;5.872;2023-04-25T03:22:19;5.60;99.90
39019;DHT22;24786;51.984;5.872;2023-04-25T03:24:44;5.50;99.90
39019;DHT22;24786;51.984;5.872;2023-04-25T03:27:10;5.50;99.90
39019;DHT22;24786;51.984;5.872;2023-04-25T03:29:35;5.40;99.90
39019;DHT22;24786;51.984;5.872;2023-04-25T03:32:01;5.40;99.90
39019;DHT22;24786;51.984;5.872;2023-04-25T03:34:26;5.30;99.90
39019;DHT22;24786;51.984;5.872;2023-04-25T03:36:52;5.30;99.90
39019;DHT22;24786;51.984;5.872;2023-04-25T03:39:17;5.30;99.90
39019;DHT22;24786;51.984;5.872;2023-04-25T03:41:43;5.30;99.90
39019;DHT22;24786;51.984;5.872;2023-04-25T03:44:08;5.30;99.90
39019;DHT22;24786;51.984;5.872;2023-04-25T03:46:34;5.30;99.90
39019;DHT22;24786;51.984;5.872;2023-04-25T03:48:59;5.30;99.90
39019;DHT22;24786;51.984;5.872;2023-04-25T03:51:25;5.30;99.90
39019;DHT22;24786;51.984;5.872;2023-04-25T03:53:51;5.30;99.90
39019;DHT22;24786;51.984;5.872;2023-04-25T03:56:17;5.30;99.90
39019;DHT22;24786;51.984;5.872;2023-04-25T03:58:42;5.30;99.90
39019;DHT22;24786;51.984;5.872;2023-04-25T04:01:07;5.30;99.90
39019;DHT22;24786;51.984;5.872;2023-04-25T04:03:33;5.30;99.90
39019;DHT22;24786;51.984;5.872;2023-04-25T04:06:01;5.30;99.90
39019;DHT22;24786;51.984;5.872;2023-04-25T04:08:26;5.20;99.90
39019;DHT22;24786;51.984;5.872;2023-04-25T04:10:52;5.20;99.90
39019;DHT22;24786;51.984;5.872;2023-04-25T04:13:17;5.20;99.90
39019;DHT22;24786;51.984;5.872;2023-04-25T04:15:43;5.20;99.90
39019;DHT22;24786;51.984;5.872;2023-04-25T04:18:08;5.10;99.90
39019;DHT22;24786;51.984;5.872;2023-04-25T04:20:34;5.10;99.90
39019;DHT22;24786;51.984;5.872;2023-04-25T04:22:59;5.10;99.90
39019;DHT22;24786;51.984;5.872;2023-04-25T04:25:25;5.00;99.90
39019;DHT22;24786;51.984;5.872;2023-04-25T04:27:51;5.00;99.90
39019;DHT22;24786;51.984;5.872;2023-04-25T04:30:21;5.00;99.90
39019;DHT22;24786;51.984;5.872;2023-04-25T04:32:46;5.00;99.90
39019;DHT22;24786;51.984;5.872;2023-04-25T04:35:13;5.00;99.90
39019;DHT22;24786;51.984;5.872;2023-04-25T04:37:39;5.00;99.90
39019;DHT22;24786;51.984;5.872;2023-04-25T04:40:06;5.00;99.90
39019;DHT22;24786;51.984;5.872;2023-04-25T04:42:32;5.00;99.90
39019;DHT22;24786;51.984;5.872;2023-04-25T04:44:57;4.90;99.90
39019;DHT22;24786;51.984;5.872;2023-04-25T04:47:24;5.00;99.90
39019;DHT22;24786;51.984;5.872;2023-04-25T04:49:50;5.00;99.90
39019;DHT22;24786;51.984;5.872;2023-04-25T04:52:16;5.00;99.90
39019;DHT22;24786;51.984;5.872;2023-04-25T04:54:41;5.00;99.90
39019;DHT22;24786;51.984;5.872;2023-04-25T04:57:07;5.00;99.90
39019;DHT22;24786;51.984;5.872;2023-04-25T04:59:32;5.10;99.90
39019;DHT22;24786;51.984;5.872;2023-04-25T05:01:58;5.00;99.90
39019;DHT22;24786;51.984;5.872;2023-04-25T05:04:23;5.10;99.90
39019;DHT22;24786;51.984;5.872;2023-04-25T05:06:49;5.10;99.90
39019;DHT22;24786;51.984;5.872;2023-04-25T05:09:14;5.10;99.90
39019;DHT22;24786;51.984;5.872;2023-04-25T05:11:40;5.10;99.90
39019;DHT22;24786;51.984;5.872;2023-04-25T05:14:05;5.10;99.90
39019;DHT22;24786;51.984;5.872;2023-04-25T05:16:31;5.20;99.90
39019;DHT22;24786;51.984;5.872;2023-04-25T05:18:56;5.20;99.90
39019;DHT22;24786;51.984;5.872;2023-04-25T05:21:22;5.30;99.90
39019;DHT22;24786;51.984;5.872;2023-04-25T05:23:47;5.40;99.90
39019;DHT22;24786;51.984;5.872;2023-04-25T05:26:13;5.40;99.90
39019;DHT22;24786;51.984;5.872;2023-04-25T05:28:41;5.50;99.90
39019;DHT22;24786;51.984;5.872;2023-04-25T05:31:07;5.50;99.90
39019;DHT22;24786;51.984;5.872;2023-04-25T05:33:33;5.60;99.90
39019;DHT22;24786;51.984;5.872;2023-04-25T05:35:58;5.60;99.90
39019;DHT22;24786;51.984;5.872;2023-04-25T05:38:23;5.70;99.90
39019;DHT22;24786;51.984;5.872;2023-04-25T05:40:49;5.70;99.90
39019;DHT22;24786;51.984;5.872;2023-04-25T05:43:14;5.70;99.90
39019;DHT22;24786;51.984;5.872;2023-04-25T05:45:40;5.80;99.90
39019;DHT22;24786;51.984;5.872;2023-04-25T05:48:06;5.80;99.90
39019;DHT22;24786;51.984;5.872;2023-04-25T05:50:31;5.70;99.90
39019;DHT22;24786;51.984;5.872;2023-04-25T05:52:56;5.80;99.90
39019;DHT22;24786;51.984;5.872;2023-04-25T05:55:22;5.80;99.90
39019;DHT22;24786;51.984;5.872;2023-04-25T05:57:47;6.00;99.90
39019;DHT22;24786;51.984;5.872;2023-04-25T06:00:13;6.10;99.90
39019;DHT22;24786;51.984;5.872;2023-04-25T06:02:40;6.00;99.90
39019;DHT22;24786;51.984;5.872;2023-04-25T06:05:06;6.10;99.90
39019;DHT22;24786;51.984;5.872;2023-04-25T06:07:31;6.20;99.90
39019;DHT22;24786;51.984;5.872;2023-04-25T06:09:57;6.20;99.90
39019;DHT22;24786;51.984;5.872;2023-04-25T06:12:22;6.30;99.90
39019;DHT22;24786;51.984;5.872;2023-04-25T06:14:48;6.40;99.90
39019;DHT22;24786;51.984;5.872;2023-04-25T06:17:13;6.40;99.90
39019;DHT22;24786;51.984;5.872;2023-04-25T06:19:39;6.50;99.90
39019;DHT22;24786;51.984;5.872;2023-04-25T06:22:04;6.50;99.90
39019;DHT22;24786;51.984;5.872;2023-04-25T06:24:30;6.50;99.90
39019;DHT22;24786;51.984;5.872;2023-04-25T06:26:55;6.60;99.90
39019;DHT22;24786;51.984;5.872;2023-04-25T06:29:21;6.60;99.90
39019;DHT22;24786;51.984;5.872;2023-04-25T06:31:46;6.60;99.90
39019;DHT22;24786;51.984;5.872;2023-04-25T06:34:12;6.60;99.90
39019;DHT22;24786;51.984;5.872;2023-04-25T06:36:37;6.70;99.90
39019;DHT22;24786;51.984;5.872;2023-04-25T06:39:03;6.70;99.90
39019;DHT22;24786;51.984;5.872;2023-04-25T06:41:28;6.80;99.90
39019;DHT22;24786;51.984;5.872;2023-04-25T06:43:54;6.80;99.90
39019;DHT22;24786;51.984;5.872;2023-04-25T06:46:19;6.90;99.90
39019;DHT22;24786;51.984;5.872;2023-04-25T06:48:45;7.00;99.90
39019;DHT22;24786;51.984;5.872;2023-04-25T06:51:10;7.00;99.90
39019;DHT22;24786;51.984;5.872;2023-04-25T06:53:36;7.10;99.90
39019;DHT22;24786;51.984;5.872;2023-04-25T06:56:01;7.10;99.90
39019;DHT22;24786;51.984;5.872;2023-04-25T06:58:27;7.20;99.90
39019;DHT22;24786;51.984;5.872;2023-04-25T07:00:53;7.20;99.90
39019;DHT22;24786;51.984;5.872;2023-04-25T07:03:18;7.20;99.90
39019;DHT22;24786;51.984;5.872;2023-04-25T07:05:43;7.30;99.90
39019;DHT22;24786;51.984;5.872;2023-04-25T07:08:11;7.30;99.90
39019;DHT22;24786;51.984;5.872;2023-04-25T07:10:36;7.30;99.90
39019;DHT22;24786;51.984;5.872;2023-04-25T07:13:01;7.30;99.90
39019;DHT22;24786;51.984;5.872;2023-04-25T07:15:27;7.30;99.90
39019;DHT22;24786;51.984;5.872;2023-04-25T07:17:52;7.40;99.90
39019;DHT22;24786;51.984;5.872;2023-04-25T07:20:18;7.50;99.90
39019;DHT22;24786;51.984;5.872;2023-04-25T07:22:43;7.70;99.90
39019;DHT22;24786;51.984;5.872;2023-04-25T07:25:09;7.80;99.90
39019;DHT22;24786;51.984;5.872;2023-04-25T07:27:34;7.90;99.90
39019;DHT22;24786;51.984;5.872;2023-04-25T07:30:00;8.10;99.90
39019;DHT22;24786;51.984;5.872;2023-04-25T07:32:25;8.10;99.90
39019;DHT22;24786;51.984;5.872;2023-04-25T07:34:51;8.20;99.90
39019;DHT22;24786;51.984;5.872;2023-04-25T07:37:17;8.30;99.90
39019;DHT22;24786;51.984;5.872;2023-04-25T07:39:44;8.40;99.90
39019;DHT22;24786;51.984;5.872;2023-04-25T07:42:11;8.40;99.90
39019;DHT22;24786;51.984;5.872;2023-04-25T07:44:36;8.40;99.90
39019;DHT22;24786;51.984;5.872;2023-04-25T07:47:04;8.40;99.90
39019;DHT22;24786;51.984;5.872;2023-04-25T07:49:32;8.40;99.90
39019;DHT22;24786;51.984;5.872;2023-04-25T07:51:58;8.50;99.90
39019;DHT22;24786;51.984;5.872;2023-04-25T07:54:23;8.50;99.90
39019;DHT22;24786;51.984;5.872;2023-04-25T07:56:49;8.50;99.90
39019;DHT22;24786;51.984;5.872;2023-04-25T07:59:14;8.60;99.90
39019;DHT22;24786;51.984;5.872;2023-04-25T08:01:40;8.70;99.90
39019;DHT22;24786;51.984;5.872;2023-04-25T08:04:05;8.70;99.90
39019;DHT22;24786;51.984;5.872;2023-04-25T08:06:31;8.80;99.90
39019;DHT22;24786;51.984;5.872;2023-04-25T08:08:56;8.80;99.90
39019;DHT22;24786;51.984;5.872;2023-04-25T08:11:22;8.80;99.90
39019;DHT22;24786;51.984;5.872;2023-04-25T08:13:47;8.80;99.90
39019;DHT22;24786;51.984;5.872;2023-04-25T08:16:12;8.80;99.90
39019;DHT22;24786;51.984;5.872;2023-04-25T08:18:38;8.80;99.90
39019;DHT22;24786;51.984;5.872;2023-04-25T08:21:03;9.00;99.90
39019;DHT22;24786;51.984;5.872;2023-04-25T08:23:29;9.10;99.90
39019;DHT22;24786;51.984;5.872;2023-04-25T08:25:54;9.30;99.90
39019;DHT22;24786;51.984;5.872;2023-04-25T08:28:20;9.40;99.90
39019;DHT22;24786;51.984;5.872;2023-04-25T08:30:45;9.40;99.90
39019;DHT22;24786;51.984;5.872;2023-04-25T08:33:11;9.40;99.90
39019;DHT22;24786;51.984;5.872;2023-04-25T08:35:36;9.40;99.90
39019;DHT22;24786;51.984;5.872;2023-04-25T08:38:02;9.40;99.90
39019;DHT22;24786;51.984;5.872;2023-04-25T08:40:27;9.30;99.90
39019;DHT22;24786;51.984;5.872;2023-04-25T08:42:56;9.20;99.90
39019;DHT22;24786;51.984;5.872;2023-04-25T08:45:22;9.10;99.90
39019;DHT22;24786;51.984;5.872;2023-04-25T08:47:48;9.00;99.90
39019;DHT22;24786;51.984;5.872;2023-04-25T08:50:16;9.00;99.90
39019;DHT22;24786;51.984;5.872;2023-04-25T08:52:45;9.00;99.90
39019;DHT22;24786;51.984;5.872;2023-04-25T08:55:12;9.00;99.90
39019;DHT22;24786;51.984;5.872;2023-04-25T08:57:38;9.00;99.90
39019;DHT22;24786;51.984;5.872;2023-04-25T09:00:04;9.00;99.90
39019;DHT22;24786;51.984;5.872;2023-04-25T09:02:30;9.00;99.90
39019;DHT22;24786;51.984;5.872;2023-04-25T09:04:56;9.00;99.90
39019;DHT22;24786;51.984;5.872;2023-04-25T09:07:22;8.90;99.90
39019;DHT22;24786;51.984;5.872;2023-04-25T09:09:48;8.90;99.90
39019;DHT22;24786;51.984;5.872;2023-04-25T09:12:13;8.90;99.90
39019;DHT22;24786;51.984;5.872;2023-04-25T09:14:38;8.80;99.90
39019;DHT22;24786;51.984;5.872;2023-04-25T09:17:04;8.70;99.90
39019;DHT22;24786;51.984;5.872;2023-04-25T09:19:34;8.60;99.90
39019;DHT22;24786;51.984;5.872;2023-04-25T09:22:05;8.60;99.90
39019;DHT22;24786;51.984;5.872;2023-04-25T09:24:32;8.70;99.90
39019;DHT22;24786;51.984;5.872;2023-04-25T09:26:57;8.80;99.90
39019;DHT22;24786;51.984;5.872;2023-04-25T09:29:30;8.80;99.90
39019;DHT22;24786;51.984;5.872;2023-04-25T09:34:45;8.90;99.90
39019;DHT22;24786;51.984;5.872;2023-04-25T09:37:16;8.80;99.90
39019;DHT22;24786;51.984;5.872;2023-04-25T09:39:44;8.80;99.90
39019;DHT22;24786;51.984;5.872;2023-04-25T09:42:09;8.70;99.90
39019;DHT22;24786;51.984;5.872;2023-04-25T09:44:35;8.70;99.90
39019;DHT22;24786;51.984;5.872;2023-04-25T09:47:01;8.90;99.90
39019;DHT22;24786;51.984;5.872;2023-04-25T09:49:28;9.00;99.90
39019;DHT22;24786;51.984;5.872;2023-04-25T09:51:56;9.30;99.90
39019;DHT22;24786;51.984;5.872;2023-04-25T09:54:25;9.50;99.90
39019;DHT22;24786;51.984;5.872;2023-04-25T09:56:52;9.60;99.90
39019;DHT22;24786;51.984;5.872;2023-04-25T09:59:21;9.70;99.90
39019;DHT22;24786;51.984;5.872;2023-04-25T10:01:48;9.90;99.90
39019;DHT22;24786;51.984;5.872;2023-04-25T10:04:14;10.20;99.90
39019;DHT22;24786;51.984;5.872;2023-04-25T10:06:41;10.40;99.90
39019;DHT22;24786;51.984;5.872;2023-04-25T10:09:08;10.60;99.90
39019;DHT22;24786;51.984;5.872;2023-04-25T10:11:33;10.50;99.90
39019;DHT22;24786;51.984;5.872;2023-04-25T10:14:00;10.30;99.90
39019;DHT22;24786;51.984;5.872;2023-04-25T10:16:25;10.20;99.90
39019;DHT22;24786;51.984;5.872;2023-04-25T10:18:51;10.00;99.90
39019;DHT22;24786;51.984;5.872;2023-04-25T10:21:17;9.90;99.90
39019;DHT22;24786;51.984;5.872;2023-04-25T10:23:43;9.80;99.90
39019;DHT22;24786;51.984;5.872;2023-04-25T10:26:09;9.80;99.90
39019;DHT22;24786;51.984;5.872;2023-04-25T10:31:22;10.00;99.90
39019;DHT22;24786;51.984;5.872;2023-04-25T10:33:48;10.00;99.90
39019;DHT22;24786;51.984;5.872;2023-04-25T10:36:14;10.00;99.90
39019;DHT22;24786;51.984;5.872;2023-04-25T10:38:44;9.90;99.90
39019;DHT22;24786;51.984;5.872;2023-04-25T10:41:10;9.80;99.90
39019;DHT22;24786;51.984;5.872;2023-04-25T10:43:40;9.70;99.90
39019;DHT22;24786;51.984;5.872;2023-04-25T10:46:15;9.70;99.90
39019;DHT22;24786;51.984;5.872;2023-04-25T10:48:45;9.70;99.90
39019;DHT22;24786;51.984;5.872;2023-04-25T10:51:12;9.80;99.90
39019;DHT22;24786;51.984;5.872;2023-04-25T10:53:40;9.90;99.90
39019;DHT22;24786;51.984;5.872;2023-04-25T10:56:16;10.00;99.90
39019;DHT22;24786;51.984;5.872;2023-04-25T10:58:43;10.10;99.90
39019;DHT22;24786;51.984;5.872;2023-04-25T11:01:08;10.30;99.90
39019;DHT22;24786;51.984;5.872;2023-04-25T11:03:38;10.60;99.90
39019;DHT22;24786;51.984;5.872;2023-04-25T11:06:03;10.80;99.90
39019;DHT22;24786;51.984;5.872;2023-04-25T11:08:37;11.00;99.90
39019;DHT22;24786;51.984;5.872;2023-04-25T11:11:07;11.20;99.90
39019;DHT22;24786;51.984;5.872;2023-04-25T11:13:33;11.30;99.90
39019;DHT22;24786;51.984;5.872;2023-04-25T11:15:58;11.40;99.90
39019;DHT22;24786;51.984;5.872;2023-04-25T11:18:25;11.30;99.90
39019;DHT22;24786;51.984;5.872;2023-04-25T11:20:51;11.30;99.90
39019;DHT22;24786;51.984;5.872;2023-04-25T11:23:16;11.30;99.90
39019;DHT22;24786;51.984;5.872;2023-04-25T11:25:42;11.30;99.90
39019;DHT22;24786;51.984;5.872;2023-04-25T11:28:07;11.30;99.90
39019;DHT22;24786;51.984;5.872;2023-04-25T11:30:33;11.30;99.70
39019;DHT22;24786;51.984;5.872;2023-04-25T11:32:58;11.30;98.30
39019;DHT22;24786;51.984;5.872;2023-04-25T11:35:24;11.40;98.90
39019;DHT22;24786;51.984;5.872;2023-04-25T11:37:50;11.50;98.40
39019;DHT22;24786;51.984;5.872;2023-04-25T11:40:16;11.60;97.10
39019;DHT22;24786;51.984;5.872;2023-04-25T11:42:45;11.80;97.60
39019;DHT22;24786;51.984;5.872;2023-04-25T11:45:11;11.70;97.00
39019;DHT22;24786;51.984;5.872;2023-04-25T11:47:36;11.50;97.40
39019;DHT22;24786;51.984;5.872;2023-04-25T11:50:02;11.20;98.10
39019;DHT22;24786;51.984;5.872;2023-04-25T11:52:37;11.00;98.80
39019;DHT22;24786;51.984;5.872;2023-04-25T11:55:04;11.10;99.20
39019;DHT22;24786;51.984;5.872;2023-04-25T11:57:30;11.40;99.30
39019;DHT22;24786;51.984;5.872;2023-04-25T12:00:04;11.60;99.00
39019;DHT22;24786;51.984;5.872;2023-04-25T12:02:31;11.80;98.50
39019;DHT22;24786;51.984;5.872;2023-04-25T12:04:59;11.80;96.50
39019;DHT22;24786;51.984;5.872;2023-04-25T12:07:28;11.60;96.70
39019;DHT22;24786;51.984;5.872;2023-04-25T12:09:54;11.40;96.90
39019;DHT22;24786;51.984;5.872;2023-04-25T12:12:19;11.20;97.30
39019;DHT22;24786;51.984;5.872;2023-04-25T12:14:46;10.90;98.10
39019;DHT22;24786;51.984;5.872;2023-04-25T12:17:13;10.70;98.50
39019;DHT22;24786;51.984;5.872;2023-04-25T12:19:38;10.30;99.10
39019;DHT22;24786;51.984;5.872;2023-04-25T12:22:18;10.00;99.90
39019;DHT22;24786;51.984;5.872;2023-04-25T12:24:44;9.70;99.90
39019;DHT22;24786;51.984;5.872;2023-04-25T12:27:10;9.50;99.90
39019;DHT22;24786;51.984;5.872;2023-04-25T12:29:35;9.40;99.90
39019;DHT22;24786;51.984;5.872;2023-04-25T12:32:01;9.20;99.90
39019;DHT22;24786;51.984;5.872;2023-04-25T12:34:27;9.30;99.90
39019;DHT22;24786;51.984;5.872;2023-04-25T12:36:52;9.20;99.90
39019;DHT22;24786;51.984;5.872;2023-04-25T12:39:18;9.10;99.90
39019;DHT22;24786;51.984;5.872;2023-04-25T12:41:45;9.20;99.90
39019;DHT22;24786;51.984;5.872;2023-04-25T12:44:10;9.30;99.90
39019;DHT22;24786;51.984;5.872;2023-04-25T12:46:36;9.30;99.90
39019;DHT22;24786;51.984;5.872;2023-04-25T12:49:02;9.40;99.90
39019;DHT22;24786;51.984;5.872;2023-04-25T12:51:28;9.50;99.90
39019;DHT22;24786;51.984;5.872;2023-04-25T12:53:54;9.60;99.90
39019;DHT22;24786;51.984;5.872;2023-04-25T12:56:19;9.80;99.90
39019;DHT22;24786;51.984;5.872;2023-04-25T12:58:45;9.90;99.90
39019;DHT22;24786;51.984;5.872;2023-04-25T13:01:12;10.00;99.90
39019;DHT22;24786;51.984;5.872;2023-04-25T13:03:39;10.30;99.90
39019;DHT22;24786;51.984;5.872;2023-04-25T13:06:06;10.40;99.90
39019;DHT22;24786;51.984;5.872;2023-04-25T13:08:31;10.50;99.90
39019;DHT22;24786;51.984;5.872;2023-04-25T13:10:56;10.70;99.90
39019;DHT22;24786;51.984;5.872;2023-04-25T13:13:22;10.90;99.90
39019;DHT22;24786;51.984;5.872;2023-04-25T13:15:47;11.00;99.90
39019;DHT22;24786;51.984;5.872;2023-04-25T13:18:13;11.20;99.90
39019;DHT22;24786;51.984;5.872;2023-04-25T13:20:38;11.20;99.90
39019;DHT22;24786;51.984;5.872;2023-04-25T13:23:04;11.10;99.90
39019;DHT22;24786;51.984;5.872;2023-04-25T13:25:29;11.00;99.90
39019;DHT22;24786;51.984;5.872;2023-04-25T13:27:55;10.90;99.90
39019;DHT22;24786;51.984;5.872;2023-04-25T13:30:20;11.00;99.90
39019;DHT22;24786;51.984;5.872;2023-04-25T13:32:46;11.20;99.90
39019;DHT22;24786;51.984;5.872;2023-04-25T13:35:12;11.40;99.70
39019;DHT22;24786;51.984;5.872;2023-04-25T13:37:39;11.50;99.50
39019;DHT22;24786;51.984;5.872;2023-04-25T13:40:06;11.40;99.10
39019;DHT22;24786;51.984;5.872;2023-04-25T13:42:33;11.20;99.40
39019;DHT22;24786;51.984;5.872;2023-04-25T13:44:59;11.00;99.00
39019;DHT22;24786;51.984;5.872;2023-04-25T13:47:25;10.80;99.60
39019;DHT22;24786;51.984;5.872;2023-04-25T13:49:51;10.90;99.90
39019;DHT22;24786;51.984;5.872;2023-04-25T13:52:16;11.10;99.60
39019;DHT22;24786;51.984;5.872;2023-04-25T13:54:41;11.20;99.00
39019;DHT22;24786;51.984;5.872;2023-04-25T13:57:07;11.10;99.30
39019;DHT22;24786;51.984;5.872;2023-04-25T13:59:33;11.00;98.80
39019;DHT22;24786;51.984;5.872;2023-04-25T14:01:58;10.90;99.00
39019;DHT22;24786;51.984;5.872;2023-04-25T14:04:24;10.70;99.00
39019;DHT22;24786;51.984;5.872;2023-04-25T14:06:50;10.80;97.60
39019;DHT22;24786;51.984;5.872;2023-04-25T14:09:16;10.80;97.50
39019;DHT22;24786;51.984;5.872;2023-04-25T14:11:41;10.90;97.30
39019;DHT22;24786;51.984;5.872;2023-04-25T14:14:07;10.90;97.10
39019;DHT22;24786;51.984;5.872;2023-04-25T14:16:33;10.80;97.30
39019;DHT22;24786;51.984;5.872;2023-04-25T14:18:58;10.80;97.50
39019;DHT22;24786;51.984;5.872;2023-04-25T14:21:24;10.60;97.60
39019;DHT22;24786;51.984;5.872;2023-04-25T14:23:50;10.60;98.20
39019;DHT22;24786;51.984;5.872;2023-04-25T14:26:15;10.60;98.40
39019;DHT22;24786;51.984;5.872;2023-04-25T14:28:41;10.50;98.20
39019;DHT22;24786;51.984;5.872;2023-04-25T14:31:07;10.50;98.50
39019;DHT22;24786;51.984;5.872;2023-04-25T14:33:32;10.60;98.20
39019;DHT22;24786;51.984;5.872;2023-04-25T14:35:58;10.80;98.10
39019;DHT22;24786;51.984;5.872;2023-04-25T14:38:23;10.90;98.20
39019;DHT22;24786;51.984;5.872;2023-04-25T14:40:51;11.10;98.40
39019;DHT22;24786;51.984;5.872;2023-04-25T14:43:16;11.30;97.60
39019;DHT22;24786;51.984;5.872;2023-04-25T14:45:42;11.50;97.20
39019;DHT22;24786;51.984;5.872;2023-04-25T14:48:07;11.70;96.50
39019;DHT22;24786;51.984;5.872;2023-04-25T14:50:33;11.80;96.30
39019;DHT22;24786;51.984;5.872;2023-04-25T14:52:58;12.00;96.00
39019;DHT22;24786;51.984;5.872;2023-04-25T14:55:28;12.20;95.80
39019;DHT22;24786;51.984;5.872;2023-04-25T14:57:54;12.30;95.40
39019;DHT22;24786;51.984;5.872;2023-04-25T15:00:20;12.40;94.70
39019;DHT22;24786;51.984;5.872;2023-04-25T15:02:51;12.10;94.50
39019;DHT22;24786;51.984;5.872;2023-04-25T15:05:16;11.90;94.70
39019;DHT22;24786;51.984;5.872;2023-04-25T15:07:43;11.60;94.80
39019;DHT22;24786;51.984;5.872;2023-04-25T15:10:08;11.40;95.10
39019;DHT22;24786;51.984;5.872;2023-04-25T15:12:39;11.30;95.00
39019;DHT22;24786;51.984;5.872;2023-04-25T15:15:06;11.20;95.50
39019;DHT22;24786;51.984;5.872;2023-04-25T15:17:31;11.30;95.20
39019;DHT22;24786;51.984;5.872;2023-04-25T15:19:57;11.40;95.30
39019;DHT22;24786;51.984;5.872;2023-04-25T15:22:22;11.40;95.20
39019;DHT22;24786;51.984;5.872;2023-04-25T15:24:48;11.30;95.20
39019;DHT22;24786;51.984;5.872;2023-04-25T15:27:13;11.10;95.30
39019;DHT22;24786;51.984;5.872;2023-04-25T15:29:39;10.90;95.60
39019;DHT22;24786;51.984;5.872;2023-04-25T15:32:05;10.80;96.00
39019;DHT22;24786;51.984;5.872;2023-04-25T15:34:31;10.60;96.60
39019;DHT22;24786;51.984;5.872;2023-04-25T15:36:56;10.50;97.00
39019;DHT22;24786;51.984;5.872;2023-04-25T15:39:22;10.40;97.80